sensor_id;sensor_type;location;lat;lon;timestamp;P1;durP1;ratioP1;P2;durP2;ratioP2
78346;SDS011;67803;41.330;69.282;2023-03-24T00:02:22;12.85;;;4.60;;
78346;SDS011;67803;41.330;69.282;2023-03-24T00:04:53;15.10;;;5.30;;
78346;SDS011;67803;41.330;69.282;2023-03-24T00:07:27;12.75;;;5.45;;
78346;SDS011;67803;41.330;69.282;2023-03-24T00:09:59;16.23;;;5.55;;
78346;SDS011;67803;41.330;69.282;2023-03-24T00:12:30;11.88;;;4.88;;
78346;SDS011;67803;41.330;69.282;2023-03-24T00:15:00;12.25;;;5.28;;
78346;SDS011;67803;41.330;69.282;2023-03-24T00:17:32;14.10;;;5.28;;
78346;SDS011;67803;41.330;69.282;2023-03-24T00:20:05;13.63;;;4.90;;
78346;SDS011;67803;41.330;69.282;2023-03-24T00:22:37;12.63;;;5.70;;
78346;SDS011;67803;41.330;69.282;2023-03-24T00:25:11;12.50;;;4.60;;
78346;SDS011;67803;41.330;69.282;2023-03-24T00:27:42;9.52;;;4.38;;
78346;SDS011;67803;41.330;69.282;2023-03-24T00:30:14;9.65;;;3.83;;
78346;SDS011;67803;41.330;69.282;2023-03-24T00:32:45;13.32;;;5.30;;
78346;SDS011;67803;41.330;69.282;2023-03-24T00:35:16;13.15;;;4.72;;
78346;SDS011;67803;41.330;69.282;2023-03-24T00:37:46;9.60;;;3.67;;
78346;SDS011;67803;41.330;69.282;2023-03-24T00:40:19;10.77;;;3.83;;
78346;SDS011;67803;41.330;69.282;2023-03-24T00:42:50;8.63;;;3.83;;
78346;SDS011;67803;41.330;69.282;2023-03-24T00:45:20;9.02;;;3.47;;
78346;SDS011;67803;41.330;69.282;2023-03-24T00:47:54;8.05;;;3.83;;
78346;SDS011;67803;41.330;69.282;2023-03-24T00:50:27;12.60;;;3.53;;
78346;SDS011;67803;41.330;69.282;2023-03-24T00:52:57;6.93;;;3.28;;
78346;SDS011;67803;41.330;69.282;2023-03-24T00:55:31;8.82;;;3.72;;
78346;SDS011;67803;41.330;69.282;2023-03-24T00:58:03;10.00;;;3.55;;
78346;SDS011;67803;41.330;69.282;2023-03-24T01:00:33;9.20;;;3.60;;
78346;SDS011;67803;41.330;69.282;2023-03-24T01:03:04;7.35;;;3.35;;
78346;SDS011;67803;41.330;69.282;2023-03-24T01:05:34;9.98;;;3.50;;
78346;SDS011;67803;41.330;69.282;2023-03-24T01:08:06;9.35;;;3.53;;
78346;SDS011;67803;41.330;69.282;2023-03-24T01:10:38;9.68;;;3.40;;
78346;SDS011;67803;41.330;69.282;2023-03-24T01:13:26;9.82;;;3.95;;
78346;SDS011;67803;41.330;69.282;2023-03-24T01:15:56;9.95;;;3.75;;
78346;SDS011;67803;41.330;69.282;2023-03-24T01:18:27;10.23;;;3.35;;
78346;SDS011;67803;41.330;69.282;2023-03-24T01:20:59;10.13;;;3.67;;
78346;SDS011;67803;41.330;69.282;2023-03-24T01:23:30;10.95;;;4.25;;
78346;SDS011;67803;41.330;69.282;2023-03-24T01:26:03;6.88;;;3.78;;
78346;SDS011;67803;41.330;69.282;2023-03-24T01:28:34;10.25;;;3.55;;
78346;SDS011;67803;41.330;69.282;2023-03-24T01:31:10;11.60;;;4.22;;
78346;SDS011;67803;41.330;69.282;2023-03-24T01:33:40;10.88;;;4.22;;
78346;SDS011;67803;41.330;69.282;2023-03-24T01:36:11;9.30;;;3.72;;
78346;SDS011;67803;41.330;69.282;2023-03-24T01:38:41;10.02;;;3.58;;
78346;SDS011;67803;41.330;69.282;2023-03-24T01:41:12;6.85;;;3.72;;
78346;SDS011;67803;41.330;69.282;2023-03-24T01:43:42;9.30;;;4.93;;
78346;SDS011;67803;41.330;69.282;2023-03-24T01:51:27;11.68;;;4.55;;
78346;SDS011;67803;41.330;69.282;2023-03-24T01:56:31;12.10;;;4.50;;
78346;SDS011;67803;41.330;69.282;2023-03-24T01:59:04;12.35;;;4.95;;
78346;SDS011;67803;41.330;69.282;2023-03-24T02:01:35;10.50;;;4.82;;
78346;SDS011;67803;41.330;69.282;2023-03-24T02:04:06;16.27;;;5.63;;
78346;SDS011;67803;41.330;69.282;2023-03-24T02:06:38;11.55;;;5.60;;
78346;SDS011;67803;41.330;69.282;2023-03-24T02:09:10;14.10;;;5.70;;
78346;SDS011;67803;41.330;69.282;2023-03-24T02:11:41;11.80;;;5.55;;
78346;SDS011;67803;41.330;69.282;2023-03-24T02:14:12;10.02;;;4.95;;
78346;SDS011;67803;41.330;69.282;2023-03-24T02:16:49;12.88;;;5.82;;
78346;SDS011;67803;41.330;69.282;2023-03-24T02:28:07;9.20;;;5.50;;
78346;SDS011;67803;41.330;69.282;2023-03-24T02:41:12;15.93;;;6.47;;
78346;SDS011;67803;41.330;69.282;2023-03-24T02:43:46;12.20;;;5.97;;
78346;SDS011;67803;41.330;69.282;2023-03-24T02:46:27;14.68;;;6.18;;
78346;SDS011;67803;41.330;69.282;2023-03-24T02:49:05;11.63;;;5.65;;
78346;SDS011;67803;41.330;69.282;2023-03-24T02:51:47;13.70;;;6.47;;
78346;SDS011;67803;41.330;69.282;2023-03-24T02:54:28;10.60;;;5.72;;
78346;SDS011;67803;41.330;69.282;2023-03-24T02:57:42;17.23;;;5.90;;
78346;SDS011;67803;41.330;69.282;2023-03-24T02:59:54;16.45;;;6.68;;
78346;SDS011;67803;41.330;69.282;2023-03-24T03:02:31;12.63;;;6.45;;
78346;SDS011;67803;41.330;69.282;2023-03-24T03:05:07;19.15;;;7.53;;
78346;SDS011;67803;41.330;69.282;2023-03-24T03:07:42;16.90;;;6.80;;
78346;SDS011;67803;41.330;69.282;2023-03-24T03:10:19;24.02;;;7.00;;
78346;SDS011;67803;41.330;69.282;2023-03-24T03:12:51;14.55;;;6.63;;
78346;SDS011;67803;41.330;69.282;2023-03-24T03:15:31;18.45;;;7.18;;
78346;SDS011;67803;41.330;69.282;2023-03-24T03:21:15;18.38;;;7.43;;
78346;SDS011;67803;41.330;69.282;2023-03-24T03:23:55;16.45;;;6.57;;
78346;SDS011;67803;41.330;69.282;2023-03-24T03:26:26;14.68;;;6.43;;
78346;SDS011;67803;41.330;69.282;2023-03-24T03:29:07;14.80;;;6.78;;
78346;SDS011;67803;41.330;69.282;2023-03-24T03:31:39;15.95;;;7.32;;
78346;SDS011;67803;41.330;69.282;2023-03-24T03:34:33;18.02;;;7.70;;
78346;SDS011;67803;41.330;69.282;2023-03-24T03:39:41;19.38;;;7.70;;
78346;SDS011;67803;41.330;69.282;2023-03-24T03:42:14;17.85;;;8.43;;
78346;SDS011;67803;41.330;69.282;2023-03-24T03:44:45;18.30;;;8.13;;
78346;SDS011;67803;41.330;69.282;2023-03-24T03:47:15;17.15;;;7.95;;
78346;SDS011;67803;41.330;69.282;2023-03-24T03:49:48;35.40;;;9.88;;
78346;SDS011;67803;41.330;69.282;2023-03-24T03:52:19;20.50;;;9.05;;
78346;SDS011;67803;41.330;69.282;2023-03-24T03:54:50;23.90;;;9.85;;
78346;SDS011;67803;41.330;69.282;2023-03-24T03:57:21;17.75;;;8.65;;
78346;SDS011;67803;41.330;69.282;2023-03-24T03:59:52;19.45;;;9.52;;
78346;SDS011;67803;41.330;69.282;2023-03-24T04:02:33;15.82;;;8.77;;
78346;SDS011;67803;41.330;69.282;2023-03-24T04:15:37;31.92;;;9.65;;
78346;SDS011;67803;41.330;69.282;2023-03-24T04:18:11;16.40;;;8.63;;
78346;SDS011;67803;41.330;69.282;2023-03-24T04:23:36;22.45;;;9.52;;
78346;SDS011;67803;41.330;69.282;2023-03-24T04:26:15;24.92;;;9.77;;
78346;SDS011;67803;41.330;69.282;2023-03-24T04:28:49;22.00;;;10.25;;
78346;SDS011;67803;41.330;69.282;2023-03-24T04:31:34;20.63;;;9.93;;
78346;SDS011;67803;41.330;69.282;2023-03-24T04:34:12;23.52;;;10.07;;
78346;SDS011;67803;41.330;69.282;2023-03-24T04:37:00;20.90;;;10.32;;
78346;SDS011;67803;41.330;69.282;2023-03-24T04:39:34;19.15;;;9.27;;
78346;SDS011;67803;41.330;69.282;2023-03-24T04:42:12;19.48;;;9.50;;
78346;SDS011;67803;41.330;69.282;2023-03-24T04:44:44;31.88;;;10.30;;
78346;SDS011;67803;41.330;69.282;2023-03-24T04:47:14;20.52;;;9.48;;
78346;SDS011;67803;41.330;69.282;2023-03-24T04:49:46;21.50;;;9.63;;
78346;SDS011;67803;41.330;69.282;2023-03-24T04:52:16;18.50;;;9.85;;
78346;SDS011;67803;41.330;69.282;2023-03-24T04:54:47;19.00;;;9.55;;
78346;SDS011;67803;41.330;69.282;2023-03-24T04:57:18;21.80;;;9.38;;
78346;SDS011;67803;41.330;69.282;2023-03-24T04:59:48;25.73;;;9.73;;
78346;SDS011;67803;41.330;69.282;2023-03-24T05:02:18;19.95;;;9.32;;
78346;SDS011;67803;41.330;69.282;2023-03-24T05:04:49;22.40;;;9.35;;
78346;SDS011;67803;41.330;69.282;2023-03-24T05:07:19;18.65;;;9.35;;
78346;SDS011;67803;41.330;69.282;2023-03-24T05:09:50;25.08;;;10.65;;
78346;SDS011;67803;41.330;69.282;2023-03-24T05:12:21;20.25;;;9.85;;
78346;SDS011;67803;41.330;69.282;2023-03-24T05:14:52;20.98;;;11.15;;
78346;SDS011;67803;41.330;69.282;2023-03-24T05:17:22;20.08;;;10.40;;
78346;SDS011;67803;41.330;69.282;2023-03-24T05:19:52;81.88;;;14.45;;
78346;SDS011;67803;41.330;69.282;2023-03-24T05:22:23;57.05;;;11.82;;
78346;SDS011;67803;41.330;69.282;2023-03-24T05:24:53;87.30;;;14.77;;
78346;SDS011;67803;41.330;69.282;2023-03-24T05:27:24;25.10;;;10.63;;
78346;SDS011;67803;41.330;69.282;2023-03-24T05:29:54;29.10;;;11.20;;
78346;SDS011;67803;41.330;69.282;2023-03-24T05:32:25;23.67;;;11.07;;
78346;SDS011;67803;41.330;69.282;2023-03-24T05:34:56;23.73;;;10.55;;
78346;SDS011;67803;41.330;69.282;2023-03-24T05:37:26;26.08;;;10.93;;
78346;SDS011;67803;41.330;69.282;2023-03-24T05:39:57;19.52;;;10.88;;
78346;SDS011;67803;41.330;69.282;2023-03-24T05:42:27;25.17;;;11.48;;
78346;SDS011;67803;41.330;69.282;2023-03-24T05:44:58;38.55;;;10.52;;
78346;SDS011;67803;41.330;69.282;2023-03-24T05:47:28;29.23;;;10.93;;
78346;SDS011;67803;41.330;69.282;2023-03-24T05:49:59;33.80;;;12.40;;
78346;SDS011;67803;41.330;69.282;2023-03-24T05:52:31;20.33;;;10.50;;
78346;SDS011;67803;41.330;69.282;2023-03-24T05:55:02;23.80;;;11.00;;
78346;SDS011;67803;41.330;69.282;2023-03-24T05:57:32;27.08;;;11.15;;
78346;SDS011;67803;41.330;69.282;2023-03-24T06:00:04;25.25;;;11.45;;
78346;SDS011;67803;41.330;69.282;2023-03-24T06:02:40;22.65;;;11.60;;
78346;SDS011;67803;41.330;69.282;2023-03-24T06:05:11;23.00;;;11.95;;
78346;SDS011;67803;41.330;69.282;2023-03-24T06:07:41;22.88;;;11.80;;
78346;SDS011;67803;41.330;69.282;2023-03-24T06:10:12;23.63;;;11.45;;
78346;SDS011;67803;41.330;69.282;2023-03-24T06:12:47;22.20;;;12.68;;
78346;SDS011;67803;41.330;69.282;2023-03-24T06:15:17;25.10;;;12.07;;
78346;SDS011;67803;41.330;69.282;2023-03-24T06:17:48;21.38;;;11.88;;
78346;SDS011;67803;41.330;69.282;2023-03-24T06:20:19;22.30;;;13.45;;
78346;SDS011;67803;41.330;69.282;2023-03-24T06:22:50;29.95;;;12.40;;
78346;SDS011;67803;41.330;69.282;2023-03-24T06:25:20;21.25;;;11.93;;
78346;SDS011;67803;41.330;69.282;2023-03-24T06:27:51;23.98;;;12.23;;
78346;SDS011;67803;41.330;69.282;2023-03-24T06:30:21;29.13;;;11.60;;
78346;SDS011;67803;41.330;69.282;2023-03-24T06:32:52;25.67;;;13.75;;
78346;SDS011;67803;41.330;69.282;2023-03-24T06:35:22;29.48;;;12.85;;
78346;SDS011;67803;41.330;69.282;2023-03-24T06:37:53;26.55;;;12.32;;
78346;SDS011;67803;41.330;69.282;2023-03-24T06:40:24;31.48;;;13.02;;
78346;SDS011;67803;41.330;69.282;2023-03-24T06:42:54;27.48;;;12.50;;
78346;SDS011;67803;41.330;69.282;2023-03-24T06:45:25;23.70;;;12.77;;
78346;SDS011;67803;41.330;69.282;2023-03-24T06:47:56;25.45;;;13.43;;
78346;SDS011;67803;41.330;69.282;2023-03-24T06:50:27;24.25;;;13.30;;
78346;SDS011;67803;41.330;69.282;2023-03-24T06:53:02;30.65;;;13.35;;
78346;SDS011;67803;41.330;69.282;2023-03-24T06:55:32;25.05;;;12.80;;
78346;SDS011;67803;41.330;69.282;2023-03-24T06:58:03;25.15;;;12.85;;
78346;SDS011;67803;41.330;69.282;2023-03-24T07:00:33;24.40;;;12.80;;
78346;SDS011;67803;41.330;69.282;2023-03-24T07:03:04;23.35;;;11.90;;
78346;SDS011;67803;41.330;69.282;2023-03-24T07:05:40;25.17;;;12.57;;
78346;SDS011;67803;41.330;69.282;2023-03-24T07:08:10;23.08;;;12.63;;
78346;SDS011;67803;41.330;69.282;2023-03-24T07:10:41;25.05;;;12.93;;
78346;SDS011;67803;41.330;69.282;2023-03-24T07:13:12;25.85;;;12.50;;
78346;SDS011;67803;41.330;69.282;2023-03-24T07:15:42;25.85;;;14.40;;
78346;SDS011;67803;41.330;69.282;2023-03-24T07:18:13;32.30;;;14.98;;
78346;SDS011;67803;41.330;69.282;2023-03-24T07:20:43;27.55;;;14.32;;
78346;SDS011;67803;41.330;69.282;2023-03-24T07:23:14;27.80;;;14.45;;
78346;SDS011;67803;41.330;69.282;2023-03-24T07:25:45;27.73;;;14.65;;
78346;SDS011;67803;41.330;69.282;2023-03-24T07:28:15;27.40;;;15.48;;
78346;SDS011;67803;41.330;69.282;2023-03-24T07:30:46;26.15;;;13.90;;
78346;SDS011;67803;41.330;69.282;2023-03-24T07:33:16;29.58;;;14.88;;
78346;SDS011;67803;41.330;69.282;2023-03-24T07:35:47;28.02;;;13.80;;
78346;SDS011;67803;41.330;69.282;2023-03-24T07:38:17;29.92;;;14.52;;
78346;SDS011;67803;41.330;69.282;2023-03-24T07:40:48;23.83;;;13.23;;
78346;SDS011;67803;41.330;69.282;2023-03-24T07:43:18;27.95;;;14.20;;
78346;SDS011;67803;41.330;69.282;2023-03-24T07:45:49;25.17;;;14.48;;
78346;SDS011;67803;41.330;69.282;2023-03-24T07:48:20;31.65;;;15.63;;
78346;SDS011;67803;41.330;69.282;2023-03-24T07:50:51;27.58;;;14.25;;
78346;SDS011;67803;41.330;69.282;2023-03-24T07:53:22;25.33;;;13.75;;
78346;SDS011;67803;41.330;69.282;2023-03-24T07:55:52;24.25;;;12.85;;
78346;SDS011;67803;41.330;69.282;2023-03-24T07:58:23;28.77;;;14.23;;
78346;SDS011;67803;41.330;69.282;2023-03-24T08:00:53;27.13;;;13.38;;
78346;SDS011;67803;41.330;69.282;2023-03-24T08:03:23;33.38;;;13.50;;
78346;SDS011;67803;41.330;69.282;2023-03-24T08:05:56;29.55;;;14.75;;
78346;SDS011;67803;41.330;69.282;2023-03-24T08:08:27;26.58;;;12.38;;
78346;SDS011;67803;41.330;69.282;2023-03-24T08:10:57;24.25;;;12.82;;
78346;SDS011;67803;41.330;69.282;2023-03-24T08:13:28;24.65;;;14.48;;
78346;SDS011;67803;41.330;69.282;2023-03-24T08:15:58;25.20;;;13.50;;
78346;SDS011;67803;41.330;69.282;2023-03-24T08:18:29;25.85;;;13.63;;
78346;SDS011;67803;41.330;69.282;2023-03-24T08:21:01;27.80;;;13.95;;
78346;SDS011;67803;41.330;69.282;2023-03-24T08:23:32;30.95;;;13.98;;
78346;SDS011;67803;41.330;69.282;2023-03-24T08:26:02;28.52;;;13.88;;
78346;SDS011;67803;41.330;69.282;2023-03-24T08:28:33;26.75;;;14.90;;
78346;SDS011;67803;41.330;69.282;2023-03-24T08:31:04;24.40;;;13.70;;
78346;SDS011;67803;41.330;69.282;2023-03-24T08:33:34;28.88;;;13.85;;
78346;SDS011;67803;41.330;69.282;2023-03-24T08:36:05;31.27;;;15.68;;
78346;SDS011;67803;41.330;69.282;2023-03-24T08:38:36;23.98;;;14.00;;
78346;SDS011;67803;41.330;69.282;2023-03-24T08:41:08;32.75;;;13.65;;
78346;SDS011;67803;41.330;69.282;2023-03-24T08:43:38;33.50;;;15.20;;
78346;SDS011;67803;41.330;69.282;2023-03-24T08:46:09;29.55;;;15.13;;
78346;SDS011;67803;41.330;69.282;2023-03-24T08:48:40;26.08;;;14.52;;
78346;SDS011;67803;41.330;69.282;2023-03-24T08:51:14;29.92;;;15.05;;
78346;SDS011;67803;41.330;69.282;2023-03-24T08:53:45;30.50;;;14.95;;
78346;SDS011;67803;41.330;69.282;2023-03-24T08:56:15;32.95;;;15.50;;
78346;SDS011;67803;41.330;69.282;2023-03-24T08:58:46;30.90;;;14.70;;
78346;SDS011;67803;41.330;69.282;2023-03-24T09:01:18;30.15;;;15.30;;
78346;SDS011;67803;41.330;69.282;2023-03-24T09:03:48;26.08;;;13.45;;
78346;SDS011;67803;41.330;69.282;2023-03-24T09:06:19;25.42;;;12.25;;
78346;SDS011;67803;41.330;69.282;2023-03-24T09:08:49;33.33;;;11.98;;
78346;SDS011;67803;41.330;69.282;2023-03-24T09:11:20;28.23;;;14.25;;
78346;SDS011;67803;41.330;69.282;2023-03-24T09:13:51;67.95;;;15.77;;
78346;SDS011;67803;41.330;69.282;2023-03-24T09:16:22;28.90;;;16.00;;
78346;SDS011;67803;41.330;69.282;2023-03-24T09:18:53;32.35;;;16.02;;
78346;SDS011;67803;41.330;69.282;2023-03-24T09:21:23;63.65;;;18.50;;
78346;SDS011;67803;41.330;69.282;2023-03-24T09:23:54;30.92;;;16.27;;
78346;SDS011;67803;41.330;69.282;2023-03-24T09:26:25;34.85;;;14.00;;
78346;SDS011;67803;41.330;69.282;2023-03-24T09:28:55;31.00;;;15.30;;
78346;SDS011;67803;41.330;69.282;2023-03-24T09:31:26;30.15;;;15.65;;
78346;SDS011;67803;41.330;69.282;2023-03-24T09:33:56;30.85;;;16.55;;
78346;SDS011;67803;41.330;69.282;2023-03-24T09:36:27;42.10;;;17.98;;
78346;SDS011;67803;41.330;69.282;2023-03-24T09:38:57;33.95;;;16.52;;
78346;SDS011;67803;41.330;69.282;2023-03-24T09:41:28;36.30;;;17.48;;
78346;SDS011;67803;41.330;69.282;2023-03-24T09:44:02;36.50;;;16.42;;
78346;SDS011;67803;41.330;69.282;2023-03-24T09:46:38;33.78;;;16.83;;
78346;SDS011;67803;41.330;69.282;2023-03-24T09:49:21;31.17;;;15.95;;
78346;SDS011;67803;41.330;69.282;2023-03-24T09:51:53;29.80;;;17.15;;
78346;SDS011;67803;41.330;69.282;2023-03-24T09:54:27;27.50;;;17.15;;
78346;SDS011;67803;41.330;69.282;2023-03-24T09:57:01;25.38;;;14.95;;
78346;SDS011;67803;41.330;69.282;2023-03-24T09:59:37;33.38;;;16.13;;
78346;SDS011;67803;41.330;69.282;2023-03-24T10:02:13;28.15;;;15.90;;
78346;SDS011;67803;41.330;69.282;2023-03-24T10:04:44;32.83;;;17.10;;
78346;SDS011;67803;41.330;69.282;2023-03-24T10:09:47;35.42;;;16.42;;
78346;SDS011;67803;41.330;69.282;2023-03-24T10:12:36;25.20;;;15.02;;
78346;SDS011;67803;41.330;69.282;2023-03-24T10:20:34;45.67;;;15.98;;
78346;SDS011;67803;41.330;69.282;2023-03-24T10:23:19;28.80;;;14.82;;
78346;SDS011;67803;41.330;69.282;2023-03-24T10:25:59;29.15;;;15.13;;
78346;SDS011;67803;41.330;69.282;2023-03-24T10:28:49;22.73;;;13.15;;
78346;SDS011;67803;41.330;69.282;2023-03-24T10:31:25;25.83;;;14.13;;
78346;SDS011;67803;41.330;69.282;2023-03-24T10:33:57;24.15;;;12.68;;
78346;SDS011;67803;41.330;69.282;2023-03-24T10:36:28;27.42;;;14.02;;
78346;SDS011;67803;41.330;69.282;2023-03-24T10:39:00;32.58;;;14.70;;
78346;SDS011;67803;41.330;69.282;2023-03-24T10:41:30;30.50;;;14.30;;
78346;SDS011;67803;41.330;69.282;2023-03-24T10:44:01;30.70;;;12.90;;
78346;SDS011;67803;41.330;69.282;2023-03-24T10:46:32;25.67;;;13.07;;
78346;SDS011;67803;41.330;69.282;2023-03-24T10:49:07;23.02;;;14.13;;
78346;SDS011;67803;41.330;69.282;2023-03-24T10:51:43;30.05;;;13.13;;
78346;SDS011;67803;41.330;69.282;2023-03-24T10:54:18;22.83;;;12.55;;
78346;SDS011;67803;41.330;69.282;2023-03-24T10:56:50;23.52;;;12.48;;
78346;SDS011;67803;41.330;69.282;2023-03-24T10:59:30;25.33;;;12.50;;
78346;SDS011;67803;41.330;69.282;2023-03-24T11:04:39;27.75;;;13.32;;
78346;SDS011;67803;41.330;69.282;2023-03-24T11:09:45;22.17;;;13.18;;
78346;SDS011;67803;41.330;69.282;2023-03-24T11:12:20;24.85;;;12.40;;
78346;SDS011;67803;41.330;69.282;2023-03-24T11:14:51;20.55;;;12.52;;
78346;SDS011;67803;41.330;69.282;2023-03-24T11:17:29;24.52;;;11.60;;
78346;SDS011;67803;41.330;69.282;2023-03-24T11:20:00;22.67;;;12.35;;
78346;SDS011;67803;41.330;69.282;2023-03-24T11:22:30;22.58;;;12.27;;
78346;SDS011;67803;41.330;69.282;2023-03-24T11:25:01;24.33;;;11.70;;
78346;SDS011;67803;41.330;69.282;2023-03-24T11:27:31;26.63;;;12.27;;
78346;SDS011;67803;41.330;69.282;2023-03-24T11:30:13;27.88;;;12.13;;
78346;SDS011;67803;41.330;69.282;2023-03-24T11:35:15;18.87;;;10.63;;
78346;SDS011;67803;41.330;69.282;2023-03-24T11:37:49;20.30;;;11.43;;
78346;SDS011;67803;41.330;69.282;2023-03-24T11:40:24;21.65;;;12.35;;
78346;SDS011;67803;41.330;69.282;2023-03-24T11:42:58;25.25;;;12.93;;
78346;SDS011;67803;41.330;69.282;2023-03-24T11:45:34;23.25;;;10.77;;
78346;SDS011;67803;41.330;69.282;2023-03-24T11:48:29;32.05;;;13.63;;
78346;SDS011;67803;41.330;69.282;2023-03-24T11:50:56;22.13;;;11.82;;
78346;SDS011;67803;41.330;69.282;2023-03-24T11:53:30;25.55;;;11.93;;
78346;SDS011;67803;41.330;69.282;2023-03-24T11:56:16;21.60;;;11.15;;
78346;SDS011;67803;41.330;69.282;2023-03-24T11:59:04;21.83;;;11.80;;
78346;SDS011;67803;41.330;69.282;2023-03-24T12:01:37;21.15;;;12.38;;
78346;SDS011;67803;41.330;69.282;2023-03-24T12:09:21;18.15;;;10.90;;
78346;SDS011;67803;41.330;69.282;2023-03-24T12:12:11;23.25;;;13.48;;
78346;SDS011;67803;41.330;69.282;2023-03-24T12:14:54;23.15;;;13.85;;
78346;SDS011;67803;41.330;69.282;2023-03-24T12:17:32;25.35;;;13.73;;
78346;SDS011;67803;41.330;69.282;2023-03-24T12:22:49;26.48;;;13.82;;
78346;SDS011;67803;41.330;69.282;2023-03-24T12:54:44;25.10;;;11.98;;
78346;SDS011;67803;41.330;69.282;2023-03-24T12:57:20;28.35;;;12.05;;
78346;SDS011;67803;41.330;69.282;2023-03-24T12:59:56;27.02;;;12.43;;
78346;SDS011;67803;41.330;69.282;2023-03-24T13:05:18;25.20;;;11.57;;
78346;SDS011;67803;41.330;69.282;2023-03-24T13:07:51;26.85;;;12.05;;
78346;SDS011;67803;41.330;69.282;2023-03-24T13:10:25;26.42;;;12.88;;
78346;SDS011;67803;41.330;69.282;2023-03-24T13:13:09;29.20;;;12.80;;
78346;SDS011;67803;41.330;69.282;2023-03-24T13:15:55;39.80;;;12.68;;
78346;SDS011;67803;41.330;69.282;2023-03-24T13:18:38;26.27;;;13.23;;
78346;SDS011;67803;41.330;69.282;2023-03-24T13:21:17;28.35;;;11.90;;
78346;SDS011;67803;41.330;69.282;2023-03-24T13:23:50;42.13;;;13.35;;
78346;SDS011;67803;41.330;69.282;2023-03-24T13:26:41;24.50;;;11.52;;
78346;SDS011;67803;41.330;69.282;2023-03-24T13:32:04;24.73;;;9.70;;
78346;SDS011;67803;41.330;69.282;2023-03-24T13:34:39;21.80;;;10.25;;
78346;SDS011;67803;41.330;69.282;2023-03-24T13:37:11;21.38;;;8.90;;
78346;SDS011;67803;41.330;69.282;2023-03-24T13:39:43;25.27;;;9.80;;
78346;SDS011;67803;41.330;69.282;2023-03-24T13:45:01;19.23;;;8.30;;
78346;SDS011;67803;41.330;69.282;2023-03-24T13:50:30;19.42;;;8.48;;
78346;SDS011;67803;41.330;69.282;2023-03-24T13:53:04;19.90;;;6.85;;
78346;SDS011;67803;41.330;69.282;2023-03-24T13:55:37;16.27;;;6.45;;
78346;SDS011;67803;41.330;69.282;2023-03-24T13:58:10;16.80;;;6.72;;
78346;SDS011;67803;41.330;69.282;2023-03-24T14:03:32;13.45;;;6.30;;
78346;SDS011;67803;41.330;69.282;2023-03-24T14:06:04;12.05;;;5.90;;
78346;SDS011;67803;41.330;69.282;2023-03-24T14:08:40;12.38;;;6.00;;
78346;SDS011;67803;41.330;69.282;2023-03-24T14:17:21;14.90;;;6.22;;
78346;SDS011;67803;41.330;69.282;2023-03-24T14:22:40;16.38;;;6.03;;
78346;SDS011;67803;41.330;69.282;2023-03-24T14:27:45;17.35;;;6.65;;
78346;SDS011;67803;41.330;69.282;2023-03-24T14:30:23;16.45;;;6.80;;
78346;SDS011;67803;41.330;69.282;2023-03-24T14:32:55;15.63;;;7.38;;
78346;SDS011;67803;41.330;69.282;2023-03-24T14:35:42;17.05;;;7.15;;
78346;SDS011;67803;41.330;69.282;2023-03-24T14:40:45;19.90;;;7.10;;
78346;SDS011;67803;41.330;69.282;2023-03-24T14:48:32;13.88;;;7.30;;
78346;SDS011;67803;41.330;69.282;2023-03-24T14:51:27;17.10;;;7.55;;
78346;SDS011;67803;41.330;69.282;2023-03-24T14:53:58;16.92;;;6.80;;
78346;SDS011;67803;41.330;69.282;2023-03-24T14:56:34;24.02;;;7.85;;
78346;SDS011;67803;41.330;69.282;2023-03-24T14:59:17;19.85;;;8.52;;
78346;SDS011;67803;41.330;69.282;2023-03-24T15:01:51;14.50;;;7.60;;
78346;SDS011;67803;41.330;69.282;2023-03-24T15:06:55;15.60;;;7.97;;
78346;SDS011;67803;41.330;69.282;2023-03-24T15:09:26;20.95;;;8.32;;
78346;SDS011;67803;41.330;69.282;2023-03-24T15:11:57;23.77;;;9.02;;
78346;SDS011;67803;41.330;69.282;2023-03-24T15:14:28;25.58;;;9.00;;
78346;SDS011;67803;41.330;69.282;2023-03-24T15:17:00;24.15;;;10.13;;
78346;SDS011;67803;41.330;69.282;2023-03-24T15:19:32;20.60;;;9.57;;
78346;SDS011;67803;41.330;69.282;2023-03-24T15:22:10;21.60;;;10.77;;
78346;SDS011;67803;41.330;69.282;2023-03-24T15:24:42;20.55;;;10.05;;
78346;SDS011;67803;41.330;69.282;2023-03-24T15:27:17;27.80;;;10.10;;
78346;SDS011;67803;41.330;69.282;2023-03-24T15:29:56;36.63;;;10.68;;
78346;SDS011;67803;41.330;69.282;2023-03-24T15:32:28;24.77;;;11.18;;
78346;SDS011;67803;41.330;69.282;2023-03-24T15:35:02;29.27;;;11.80;;
78346;SDS011;67803;41.330;69.282;2023-03-24T15:37:35;26.92;;;10.20;;
78346;SDS011;67803;41.330;69.282;2023-03-24T15:43:02;24.65;;;11.50;;
78346;SDS011;67803;41.330;69.282;2023-03-24T15:45:36;28.88;;;11.85;;
78346;SDS011;67803;41.330;69.282;2023-03-24T15:48:22;27.77;;;12.75;;
78346;SDS011;67803;41.330;69.282;2023-03-24T15:53:40;26.48;;;13.10;;
78346;SDS011;67803;41.330;69.282;2023-03-24T15:56:17;29.95;;;14.25;;
78346;SDS011;67803;41.330;69.282;2023-03-24T15:58:49;27.88;;;12.77;;
78346;SDS011;67803;41.330;69.282;2023-03-24T16:01:24;30.13;;;13.45;;
78346;SDS011;67803;41.330;69.282;2023-03-24T16:03:56;27.45;;;13.38;;
78346;SDS011;67803;41.330;69.282;2023-03-24T16:06:27;26.02;;;11.65;;
78346;SDS011;67803;41.330;69.282;2023-03-24T16:09:06;26.77;;;12.82;;
78346;SDS011;67803;41.330;69.282;2023-03-24T16:11:38;30.30;;;13.77;;
78346;SDS011;67803;41.330;69.282;2023-03-24T16:14:20;27.85;;;12.55;;
78346;SDS011;67803;41.330;69.282;2023-03-24T16:16:52;31.15;;;13.55;;
78346;SDS011;67803;41.330;69.282;2023-03-24T16:19:23;29.67;;;14.05;;
78346;SDS011;67803;41.330;69.282;2023-03-24T16:21:54;34.40;;;13.10;;
78346;SDS011;67803;41.330;69.282;2023-03-24T16:24:24;29.55;;;13.77;;
78346;SDS011;67803;41.330;69.282;2023-03-24T16:26:55;34.47;;;15.27;;
78346;SDS011;67803;41.330;69.282;2023-03-24T16:29:25;32.55;;;15.05;;
78346;SDS011;67803;41.330;69.282;2023-03-24T16:31:56;31.10;;;14.73;;
78346;SDS011;67803;41.330;69.282;2023-03-24T16:34:27;32.30;;;14.90;;
78346;SDS011;67803;41.330;69.282;2023-03-24T16:36:58;30.95;;;14.40;;
78346;SDS011;67803;41.330;69.282;2023-03-24T16:39:28;30.33;;;14.18;;
78346;SDS011;67803;41.330;69.282;2023-03-24T16:42:00;27.02;;;13.82;;
78346;SDS011;67803;41.330;69.282;2023-03-24T16:44:30;27.42;;;13.73;;
78346;SDS011;67803;41.330;69.282;2023-03-24T16:47:01;29.13;;;12.50;;
78346;SDS011;67803;41.330;69.282;2023-03-24T16:49:31;27.27;;;12.63;;
78346;SDS011;67803;41.330;69.282;2023-03-24T16:52:02;31.70;;;12.48;;
78346;SDS011;67803;41.330;69.282;2023-03-24T16:54:33;25.50;;;11.48;;
78346;SDS011;67803;41.330;69.282;2023-03-24T16:57:03;26.00;;;11.45;;
78346;SDS011;67803;41.330;69.282;2023-03-24T16:59:34;32.10;;;12.63;;
78346;SDS011;67803;41.330;69.282;2023-03-24T17:02:05;26.60;;;11.73;;
78346;SDS011;67803;41.330;69.282;2023-03-24T17:04:38;26.17;;;12.85;;
78346;SDS011;67803;41.330;69.282;2023-03-24T17:07:10;36.70;;;12.80;;
78346;SDS011;67803;41.330;69.282;2023-03-24T17:09:40;32.38;;;12.85;;